sensor_id;sensor_type;location;lat;lon;timestamp;pressure;altitude;pressure_sealevel;temperature;humidity
7662;BME280;30314;48.184;11.510;2023-03-19T00:02:02;95575.53;;;5.95;100.00
7662;BME280;30314;48.184;11.510;2023-03-19T00:04:45;95574.75;;;5.89;100.00
7662;BME280;30314;48.184;11.510;2023-03-19T00:07:12;95581.06;;;5.88;100.00
7662;BME280;30314;48.184;11.510;2023-03-19T00:09:39;95589.69;;;5.94;100.00
7662;BME280;30314;48.184;11.510;2023-03-19T00:12:06;95577.13;;;5.90;100.00
7662;BME280;30314;48.184;11.510;2023-03-19T00:14:33;95576.59;;;5.88;100.00
7662;BME280;30314;48.184;11.510;2023-03-19T00:17:00;95575.00;;;5.87;100.00
7662;BME280;30314;48.184;11.510;2023-03-19T00:19:27;95580.78;;;5.95;100.00
7662;BME280;30314;48.184;11.510;2023-03-19T00:21:53;95580.00;;;5.94;100.00
7662;BME280;30314;48.184;11.510;2023-03-19T00:24:21;95577.91;;;5.96;100.00
7662;BME280;30314;48.184;11.510;2023-03-19T00:26:48;95581.84;;;5.88;100.00
7662;BME280;30314;48.184;11.510;2023-03-19T00:29:15;95588.91;;;5.77;100.00
7662;BME280;30314;48.184;11.510;2023-03-19T00:31:41;95571.34;;;5.62;100.00
7662;BME280;30314;48.184;11.510;2023-03-19T00:34:09;95602.00;;;5.77;100.00
7662;BME280;30314;48.184;11.510;2023-03-19T00:36:35;95601.75;;;5.63;100.00
7662;BME280;30314;48.184;11.510;2023-03-19T00:39:03;95600.69;;;5.64;100.00
7662;BME280;30314;48.184;11.510;2023-03-19T00:41:31;95570.78;;;5.40;100.00
7662;BME280;30314;48.184;11.510;2023-03-19T00:43:57;95587.53;;;5.44;100.00
7662;BME280;30314;48.184;11.510;2023-03-19T00:46:24;95598.03;;;5.49;100.00
7662;BME280;30314;48.184;11.510;2023-03-19T00:48:51;95572.03;;;5.27;100.00
7662;BME280;30314;48.184;11.510;2023-03-19T00:51:21;95582.78;;;5.25;100.00
7662;BME280;30314;48.184;11.510;2023-03-19T00:53:49;95553.94;;;5.04;100.00
7662;BME280;30314;48.184;11.510;2023-03-19T00:56:17;95588.31;;;5.34;100.00
7662;BME280;30314;48.184;11.510;2023-03-19T00:58:45;95602.25;;;5.55;100.00
7662;BME280;30314;48.184;11.510;2023-03-19T01:01:14;95598.59;;;5.61;100.00
7662;BME280;30314;48.184;11.510;2023-03-19T01:03:42;95608.00;;;5.57;100.00
7662;BME280;30314;48.184;11.510;2023-03-19T01:06:08;95604.59;;;5.46;100.00
7662;BME280;30314;48.184;11.510;2023-03-19T01:08:35;95591.94;;;5.22;100.00
7662;BME280;30314;48.184;11.510;2023-03-19T01:11:11;95595.88;;;5.25;100.00
7662;BME280;30314;48.184;11.510;2023-03-19T01:13:37;95589.81;;;5.14;100.00
7662;BME280;30314;48.184;11.510;2023-03-19T01:16:05;95595.56;;;5.11;100.00
7662;BME280;30314;48.184;11.510;2023-03-19T01:18:31;95599.75;;;5.07;100.00
7662;BME280;30314;48.184;11.510;2023-03-19T01:20:58;95597.63;;;4.99;100.00
7662;BME280;30314;48.184;11.510;2023-03-19T01:23:26;95620.44;;;5.09;100.00
7662;BME280;30314;48.184;11.510;2023-03-19T01:25:53;95603.13;;;5.02;100.00
7662;BME280;30314;48.184;11.510;2023-03-19T01:28:20;95623.06;;;5.14;100.00
7662;BME280;30314;48.184;11.510;2023-03-19T01:30:47;95595.22;;;4.92;100.00
7662;BME280;30314;48.184;11.510;2023-03-19T01:33:28;95602.34;;;5.02;100.00
7662;BME280;30314;48.184;11.510;2023-03-19T01:36:00;95614.97;;;5.20;100.00
7662;BME280;30314;48.184;11.510;2023-03-19T01:38:37;95614.69;;;5.17;100.00
7662;BME280;30314;48.184;11.510;2023-03-19T01:41:08;95606.22;;;4.94;100.00
7662;BME280;30314;48.184;11.510;2023-03-19T01:43:35;95607.28;;;4.93;100.00
7662;BME280;30314;48.184;11.510;2023-03-19T01:46:23;95603.13;;;5.07;100.00
7662;BME280;30314;48.184;11.510;2023-03-19T01:49:10;95599.41;;;4.93;100.00
7662;BME280;30314;48.184;11.510;2023-03-19T01:51:40;95606.22;;;4.94;100.00
7662;BME280;30314;48.184;11.510;2023-03-19T01:54:28;95605.69;;;4.92;100.00
7662;BME280;30314;48.184;11.510;2023-03-19T01:57:24;95608.34;;;4.97;100.00
7662;BME280;30314;48.184;11.510;2023-03-19T02:00:14;95618.25;;;4.90;100.00
7662;BME280;30314;48.184;11.510;2023-03-19T02:02:46;95621.94;;;4.94;100.00
7662;BME280;30314;48.184;11.510;2023-03-19T02:05:25;95610.94;;;4.92;100.00
7662;BME280;30314;48.184;11.510;2023-03-19T02:08:02;95618.34;;;5.11;100.00
7662;BME280;30314;48.184;11.510;2023-03-19T02:10:32;95610.97;;;4.97;100.00
7662;BME280;30314;48.184;11.510;2023-03-19T02:13:00;95611.47;;;4.94;100.00
7662;BME280;30314;48.184;11.510;2023-03-19T02:15:26;95618.38;;;5.16;100.00
7662;BME280;30314;48.184;11.510;2023-03-19T02:17:53;95614.66;;;5.06;100.00
7662;BME280;30314;48.184;11.510;2023-03-19T02:26:07;95606.22;;;4.89;100.00
7662;BME280;30314;48.184;11.510;2023-03-19T02:28:38;95608.81;;;4.84;100.00
7662;BME280;30314;48.184;11.510;2023-03-19T02:31:06;95625.56;;;4.83;100.00
7662;BME280;30314;48.184;11.510;2023-03-19T02:33:33;95614.81;;;4.79;100.00
7662;BME280;30314;48.184;11.510;2023-03-19T02:36:02;95606.91;;;4.74;100.00
7662;BME280;30314;48.184;11.510;2023-03-19T02:38:32;95614.75;;;4.74;100.00
7662;BME280;30314;48.184;11.510;2023-03-19T02:41:01;95609.00;;;4.67;100.00
7662;BME280;30314;48.184;11.510;2023-03-19T02:43:32;95603.72;;;4.61;100.00
7662;BME280;30314;48.184;11.510;2023-03-19T02:46:01;95600.16;;;4.78;100.00
7662;BME280;30314;48.184;11.510;2023-03-19T02:48:28;95614.00;;;4.78;100.00
7662;BME280;30314;48.184;11.510;2023-03-19T02:50:55;95617.91;;;4.71;100.00
7662;BME280;30314;48.184;11.510;2023-03-19T02:53:22;95626.50;;;4.66;100.00
7662;BME280;30314;48.184;11.510;2023-03-19T02:55:50;95618.41;;;4.68;100.00
7662;BME280;30314;48.184;11.510;2023-03-19T02:58:17;95618.13;;;4.64;100.00
7662;BME280;30314;48.184;11.510;2023-03-19T03:00:43;95618.72;;;4.76;100.00
7662;BME280;30314;48.184;11.510;2023-03-19T03:03:10;95624.97;;;4.70;100.00
7662;BME280;30314;48.184;11.510;2023-03-19T03:05:38;95623.94;;;4.76;100.00
7662;BME280;30314;48.184;11.510;2023-03-19T03:08:05;95624.69;;;4.67;100.00
7662;BME280;30314;48.184;11.510;2023-03-19T03:10:32;95621.25;;;4.66;100.00
7662;BME280;30314;48.184;11.510;2023-03-19T03:12:59;95631.25;;;4.69;100.00
7662;BME280;30314;48.184;11.510;2023-03-19T03:15:27;95644.88;;;4.76;100.00
7662;BME280;30314;48.184;11.510;2023-03-19T03:17:53;95638.53;;;4.67;100.00
7662;BME280;30314;48.184;11.510;2023-03-19T03:20:21;95647.19;;;4.73;100.00
7662;BME280;30314;48.184;11.510;2023-03-19T03:22:48;95648.00;;;4.68;100.00
7662;BME280;30314;48.184;11.510;2023-03-19T03:25:14;95653.25;;;4.73;100.00
7662;BME280;30314;48.184;11.510;2023-03-19T03:27:41;95638.50;;;4.57;100.00
7662;BME280;30314;48.184;11.510;2023-03-19T03:30:08;95658.47;;;4.73;100.00
7662;BME280;30314;48.184;11.510;2023-03-19T03:32:37;95649.59;;;4.74;100.00
7662;BME280;30314;48.184;11.510;2023-03-19T03:35:05;95638.50;;;4.57;100.00
7662;BME280;30314;48.184;11.510;2023-03-19T03:37:32;95637.44;;;4.58;100.00
7662;BME280;30314;48.184;11.510;2023-03-19T03:39:58;95647.16;;;4.62;100.00
7662;BME280;30314;48.184;11.510;2023-03-19T03:42:25;95646.38;;;4.62;100.00
7662;BME280;30314;48.184;11.510;2023-03-19T03:44:52;95645.78;;;4.55;100.00
7662;BME280;30314;48.184;11.510;2023-03-19T03:47:18;95645.38;;;4.68;100.00
7662;BME280;30314;48.184;11.510;2023-03-19T03:49:45;95640.34;;;4.61;100.00
7662;BME280;30314;48.184;11.510;2023-03-19T03:52:12;95649.81;;;4.68;100.00
7662;BME280;30314;48.184;11.510;2023-03-19T03:54:39;95655.25;;;4.61;100.00
7662;BME280;30314;48.184;11.510;2023-03-19T03:57:06;95652.41;;;4.62;100.00
7662;BME280;30314;48.184;11.510;2023-03-19T03:59:33;95665.53;;;4.73;100.00
7662;BME280;30314;48.184;11.510;2023-03-19T04:02:00;95645.31;;;4.58;100.00
7662;BME280;30314;48.184;11.510;2023-03-19T04:04:27;95658.47;;;4.73;100.00
7662;BME280;30314;48.184;11.510;2023-03-19T04:06:54;95677.56;;;4.74;100.00
7662;BME280;30314;48.184;11.510;2023-03-19T04:09:29;95670.81;;;4.78;100.00
7662;BME280;30314;48.184;11.510;2023-03-19T04:11:57;95655.31;;;4.71;100.00
7662;BME280;30314;48.184;11.510;2023-03-19T04:14:24;95653.75;;;4.70;100.00
7662;BME280;30314;48.184;11.510;2023-03-19T04:16:50;95661.09;;;4.78;100.00
7662;BME280;30314;48.184;11.510;2023-03-19T04:19:17;95677.38;;;4.86;100.00
7662;BME280;30314;48.184;11.510;2023-03-19T04:21:44;95657.72;;;4.78;100.00
7662;BME280;30314;48.184;11.510;2023-03-19T04:24:12;95673.72;;;4.82;100.00
7662;BME280;30314;48.184;11.510;2023-03-19T04:26:39;95665.25;;;4.69;100.00
7662;BME280;30314;48.184;11.510;2023-03-19T04:29:06;95670.53;;;4.79;100.00
7662;BME280;30314;48.184;11.510;2023-03-19T04:31:34;95681.56;;;4.82;100.00
7662;BME280;30314;48.184;11.510;2023-03-19T04:34:01;95692.03;;;4.87;100.00
7662;BME280;30314;48.184;11.510;2023-03-19T04:36:27;95673.72;;;4.82;100.00
7662;BME280;30314;48.184;11.510;2023-03-19T04:38:54;95691.00;;;4.88;100.00
7662;BME280;30314;48.184;11.510;2023-03-19T04:41:21;95695.19;;;4.89;100.00
7662;BME280;30314;48.184;11.510;2023-03-19T04:44:20;95689.94;;;4.84;100.00
7662;BME280;30314;48.184;11.510;2023-03-19T04:46:47;95696.22;;;4.88;100.00
7662;BME280;30314;48.184;11.510;2023-03-19T04:49:16;95697.81;;;4.89;100.00
7662;BME280;30314;48.184;11.510;2023-03-19T04:51:44;95705.41;;;4.90;100.00
7662;BME280;30314;48.184;11.510;2023-03-19T04:54:11;95689.13;;;4.83;100.00
7662;BME280;30314;48.184;11.510;2023-03-19T04:56:37;95688.13;;;4.89;100.00
7662;BME280;30314;48.184;11.510;2023-03-19T04:59:04;95690.97;;;4.83;100.00
7662;BME280;30314;48.184;11.510;2023-03-19T05:01:31;95682.03;;;4.78;100.00
7662;BME280;30314;48.184;11.510;2023-03-19T05:04:02;95695.47;;;4.92;100.00
7662;BME280;30314;48.184;11.510;2023-03-19T05:06:31;95696.81;;;5.00;100.00
7662;BME280;30314;48.184;11.510;2023-03-19T05:08:58;95696.09;;;5.10;100.00
7662;BME280;30314;48.184;11.510;2023-03-19T05:11:26;95706.28;;;5.06;100.00
7662;BME280;30314;48.184;11.510;2023-03-19T05:14:11;95712.31;;;5.12;100.00
7662;BME280;30314;48.184;11.510;2023-03-19T05:16:53;95705.03;;;5.19;100.00
7662;BME280;30314;48.184;11.510;2023-03-19T05:19:20;95712.91;;;5.25;100.00
7662;BME280;30314;48.184;11.510;2023-03-19T05:21:48;95711.38;;;5.29;100.00
7662;BME280;30314;48.184;11.510;2023-03-19T05:24:19;95716.88;;;5.32;100.00
7662;BME280;30314;48.184;11.510;2023-03-19T05:26:46;95708.50;;;5.30;100.00
7662;BME280;30314;48.184;11.510;2023-03-19T05:29:39;95716.66;;;5.39;100.00
7662;BME280;30314;48.184;11.510;2023-03-19T05:32:16;95733.75;;;5.52;100.00
7662;BME280;30314;48.184;11.510;2023-03-19T05:34:43;95736.06;;;5.48;100.00
7662;BME280;30314;48.184;11.510;2023-03-19T05:37:10;95749.97;;;5.54;100.00
7662;BME280;30314;48.184;11.510;2023-03-19T05:39:38;95712.50;;;5.54;100.00
7662;BME280;30314;48.184;11.510;2023-03-19T05:42:07;95724.59;;;5.65;100.00
7662;BME280;30314;48.184;11.510;2023-03-19T05:44:34;95736.19;;;5.80;100.00
7662;BME280;30314;48.184;11.510;2023-03-19T05:47:28;95745.59;;;5.75;100.00
7662;BME280;30314;48.184;11.510;2023-03-19T05:49:56;95735.66;;;5.72;100.00
7662;BME280;30314;48.184;11.510;2023-03-19T05:52:23;95755.84;;;5.82;100.00
7662;BME280;30314;48.184;11.510;2023-03-19T05:54:52;95757.69;;;5.87;100.00
7662;BME280;30314;48.184;11.510;2023-03-19T05:57:45;95755.63;;;5.94;100.00
7662;BME280;30314;48.184;11.510;2023-03-19T06:00:17;95754.91;;;6.14;100.00
7662;BME280;30314;48.184;11.510;2023-03-19T06:02:45;95762.25;;;6.23;100.00
7662;BME280;30314;48.184;11.510;2023-03-19T06:05:29;95770.63;;;6.19;100.00
7662;BME280;30314;48.184;11.510;2023-03-19T06:08:01;95775.38;;;6.33;100.00
7662;BME280;30314;48.184;11.510;2023-03-19T06:11:06;95791.63;;;6.40;100.00
7662;BME280;30314;48.184;11.510;2023-03-19T06:13:34;95794.00;;;6.42;100.00
7662;BME280;30314;48.184;11.510;2023-03-19T06:16:07;95805.56;;;6.46;100.00
7662;BME280;30314;48.184;11.510;2023-03-19T06:18:41;95805.31;;;6.42;100.00
7662;BME280;30314;48.184;11.510;2023-03-19T06:21:11;95808.97;;;6.52;100.00
7662;BME280;30314;48.184;11.510;2023-03-19T06:23:37;95823.97;;;6.61;100.00
7662;BME280;30314;48.184;11.510;2023-03-19T06:26:05;95831.59;;;6.68;100.00
7662;BME280;30314;48.184;11.510;2023-03-19T06:28:42;95820.28;;;6.68;100.00
7662;BME280;30314;48.184;11.510;2023-03-19T06:31:09;95800.09;;;6.58;100.00
7662;BME280;30314;48.184;11.510;2023-03-19T06:33:54;95829.53;;;6.81;100.00
7662;BME280;30314;48.184;11.510;2023-03-19T06:36:25;95831.34;;;6.85;100.00
7662;BME280;30314;48.184;11.510;2023-03-19T06:38:52;95820.84;;;6.85;100.00
7662;BME280;30314;48.184;11.510;2023-03-19T06:41:18;95845.00;;;6.98;100.00
7662;BME280;30314;48.184;11.510;2023-03-19T06:43:46;95825.84;;;6.87;100.00
7662;BME280;30314;48.184;11.510;2023-03-19T06:46:13;95830.31;;;6.97;100.00
7662;BME280;30314;48.184;11.510;2023-03-19T06:48:40;95837.94;;;7.09;100.00
7662;BME280;30314;48.184;11.510;2023-03-19T06:51:06;95834.53;;;7.03;100.00
7662;BME280;30314;48.184;11.510;2023-03-19T06:53:33;95846.84;;;7.18;100.00
7662;BME280;30314;48.184;11.510;2023-03-19T06:55:59;95841.88;;;7.16;100.00
7662;BME280;30314;48.184;11.510;2023-03-19T06:58:26;95844.22;;;7.18;100.00
7662;BME280;30314;48.184;11.510;2023-03-19T07:00:53;95850.00;;;7.30;100.00
7662;BME280;30314;48.184;11.510;2023-03-19T07:03:20;95854.47;;;7.40;100.00
7662;BME280;30314;48.184;11.510;2023-03-19T07:05:49;95835.81;;;7.31;100.00
7662;BME280;30314;48.184;11.510;2023-03-19T07:08:16;95854.97;;;7.47;100.00
7662;BME280;30314;48.184;11.510;2023-03-19T07:10:43;95863.34;;;7.65;100.00
7662;BME280;30314;48.184;11.510;2023-03-19T07:13:09;95874.91;;;7.69;100.00
7662;BME280;30314;48.184;11.510;2023-03-19T07:15:36;95848.66;;;7.54;100.00
7662;BME280;30314;48.184;11.510;2023-03-19T07:18:02;95877.78;;;7.73;100.00
7662;BME280;30314;48.184;11.510;2023-03-19T07:20:29;95865.19;;;7.75;100.00
7662;BME280;30314;48.184;11.510;2023-03-19T07:22:56;95888.28;;;7.88;100.00
7662;BME280;30314;48.184;11.510;2023-03-19T07:25:22;95862.53;;;7.80;100.00
7662;BME280;30314;48.184;11.510;2023-03-19T07:27:49;95900.59;;;8.09;100.00
7662;BME280;30314;48.184;11.510;2023-03-19T07:30:16;95857.22;;;8.01;100.00
7662;BME280;30314;48.184;11.510;2023-03-19T07:32:42;95902.63;;;8.27;100.00
7662;BME280;30314;48.184;11.510;2023-03-19T07:35:09;95847.44;;;8.12;100.00
7662;BME280;30314;48.184;11.510;2023-03-19T07:37:36;95898.06;;;8.49;100.00
7662;BME280;30314;48.184;11.510;2023-03-19T07:40:02;95904.38;;;8.48;100.00
7662;BME280;30314;48.184;11.510;2023-03-19T07:42:30;95911.13;;;8.64;100.00
7662;BME280;30314;48.184;11.510;2023-03-19T07:44:56;95915.88;;;8.62;100.00
7662;BME280;30314;48.184;11.510;2023-03-19T07:47:23;95915.84;;;8.72;100.00
7662;BME280;30314;48.184;11.510;2023-03-19T07:49:55;95926.13;;;8.69;100.00
7662;BME280;30314;48.184;11.510;2023-03-19T07:52:23;95918.50;;;8.62;100.00
7662;BME280;30314;48.184;11.510;2023-03-19T07:54:50;95911.44;;;8.57;100.00
7662;BME280;30314;48.184;11.510;2023-03-19T07:57:17;95920.59;;;8.65;100.00
7662;BME280;30314;48.184;11.510;2023-03-19T07:59:44;95925.84;;;8.70;100.00
7662;BME280;30314;48.184;11.510;2023-03-19T08:02:12;95925.31;;;8.73;100.00
7662;BME280;30314;48.184;11.510;2023-03-19T08:04:39;95943.59;;;8.99;100.00
7662;BME280;30314;48.184;11.510;2023-03-19T08:07:05;95922.84;;;8.93;100.00
7662;BME280;30314;48.184;11.510;2023-03-19T08:09:33;95935.50;;;8.91;100.00
7662;BME280;30314;48.184;11.510;2023-03-19T08:11:59;95946.84;;;8.86;100.00
7662;BME280;30314;48.184;11.510;2023-03-19T08:14:26;95923.19;;;8.81;100.00
7662;BME280;30314;48.184;11.510;2023-03-19T08:16:52;95935.91;;;9.08;100.00
7662;BME280;30314;48.184;11.510;2023-03-19T08:19:19;95933.88;;;9.00;100.00
7662;BME280;30314;48.184;11.510;2023-03-19T08:21:45;95933.41;;;8.87;100.00
7662;BME280;30314;48.184;11.510;2023-03-19T08:24:12;95930.53;;;8.84;100.00
7662;BME280;30314;48.184;11.510;2023-03-19T08:26:38;95874.34;;;8.54;100.00
7662;BME280;30314;48.184;11.510;2023-03-19T08:29:05;95939.34;;;9.03;100.00
7662;BME280;30314;48.184;11.510;2023-03-19T08:31:32;95925.25;;;8.84;100.00
7662;BME280;30314;48.184;11.510;2023-03-19T08:33:59;95937.31;;;8.95;100.00
7662;BME280;30314;48.184;11.510;2023-03-19T08:36:28;95930.22;;;8.91;100.00
7662;BME280;30314;48.184;11.510;2023-03-19T08:38:54;95897.91;;;8.80;100.00
7662;BME280;30314;48.184;11.510;2023-03-19T08:41:22;95917.25;;;8.99;100.00
7662;BME280;30314;48.184;11.510;2023-03-19T08:43:48;95931.38;;;9.14;100.00
7662;BME280;30314;48.184;11.510;2023-03-19T08:46:15;95924.41;;;8.94;100.00
7662;BME280;30314;48.184;11.510;2023-03-19T08:48:42;95929.66;;;8.94;100.00
7662;BME280;30314;48.184;11.510;2023-03-19T08:51:09;95959.31;;;9.20;100.00
7662;BME280;30314;48.184;11.510;2023-03-19T08:53:37;95925.41;;;9.03;100.00
7662;BME280;30314;48.184;11.510;2023-03-19T08:56:05;95958.50;;;9.20;100.00
7662;BME280;30314;48.184;11.510;2023-03-19T08:58:33;95956.22;;;9.08;100.00
7662;BME280;30314;48.184;11.510;2023-03-19T09:01:05;95938.88;;;8.96;100.00
7662;BME280;30314;48.184;11.510;2023-03-19T09:03:33;95942.06;;;8.93;100.00
7662;BME280;30314;48.184;11.510;2023-03-19T09:06:01;95960.84;;;9.26;100.00
7662;BME280;30314;48.184;11.510;2023-03-19T09:08:28;95954.09;;;9.10;100.00
7662;BME280;30314;48.184;11.510;2023-03-19T09:10:54;95971.63;;;9.30;100.00
7662;BME280;30314;48.184;11.510;2023-03-19T09:13:22;95972.94;;;9.33;100.00
7662;BME280;30314;48.184;11.510;2023-03-19T09:15:49;95966.19;;;9.56;100.00
7662;BME280;30314;48.184;11.510;2023-03-19T09:18:17;95969.88;;;9.55;100.00
7662;BME280;30314;48.184;11.510;2023-03-19T09:20:46;95928.34;;;9.36;100.00
7662;BME280;30314;48.184;11.510;2023-03-19T09:23:13;95967.94;;;9.66;100.00
7662;BME280;30314;48.184;11.510;2023-03-19T09:25:39;95982.84;;;9.81;100.00
7662;BME280;30314;48.184;11.510;2023-03-19T09:28:09;95939.09;;;9.45;100.00
7662;BME280;30314;48.184;11.510;2023-03-19T09:30:36;95976.59;;;9.71;100.00
7662;BME280;30314;48.184;11.510;2023-03-19T09:33:03;95964.47;;;9.70;100.00
7662;BME280;30314;48.184;11.510;2023-03-19T09:35:31;95983.31;;;9.88;100.00
7662;BME280;30314;48.184;11.510;2023-03-19T09:37:59;95976.97;;;9.89;100.00
7662;BME280;30314;48.184;11.510;2023-03-19T09:43:40;95982.53;;;9.88;100.00
7662;BME280;30314;48.184;11.510;2023-03-19T09:46:16;95983.94;;;9.75;100.00
7662;BME280;30314;48.184;11.510;2023-03-19T09:48:55;95985.72;;;9.84;100.00
7662;BME280;30314;48.184;11.510;2023-03-19T09:51:36;95998.13;;;9.84;100.00
7662;BME280;30314;48.184;11.510;2023-03-19T09:54:16;96009.56;;;9.69;100.00
7662;BME280;30314;48.184;11.510;2023-03-19T09:56:46;95998.84;;;9.60;100.00
7662;BME280;30314;48.184;11.510;2023-03-19T09:59:12;95990.41;;;9.58;100.00
7662;BME280;30314;48.184;11.510;2023-03-19T10:01:43;95991.28;;;9.48;100.00
7662;BME280;30314;48.184;11.510;2023-03-19T10:04:42;96010.72;;;9.57;100.00
7662;BME280;30314;48.184;11.510;2023-03-19T10:07:13;96001.97;;;9.67;100.00
7662;BME280;30314;48.184;11.510;2023-03-19T10:15:36;95987.47;;;9.65;100.00
7662;BME280;30314;48.184;11.510;2023-03-19T10:18:11;95981.38;;;9.64;100.00
7662;BME280;30314;48.184;11.510;2023-03-19T10:20:57;95979.94;;;9.82;100.00
7662;BME280;30314;48.184;11.510;2023-03-19T10:26:12;95976.38;;;9.97;100.00
7662;BME280;30314;48.184;11.510;2023-03-19T10:28:42;95972.91;;;10.02;100.00
7662;BME280;30314;48.184;11.510;2023-03-19T10:34:00;95972.91;;;10.02;100.00
7662;BME280;30314;48.184;11.510;2023-03-19T10:36:33;95962.34;;;10.02;100.00
7662;BME280;30314;48.184;11.510;2023-03-19T10:39:00;95984.28;;;10.27;100.00
7662;BME280;30314;48.184;11.510;2023-03-19T10:44:02;95996.44;;;10.23;100.00
7662;BME280;30314;48.184;11.510;2023-03-19T10:46:40;96001.22;;;10.21;100.00
7662;BME280;30314;48.184;11.510;2023-03-19T10:49:11;95975.78;;;10.06;100.00
7662;BME280;30314;48.184;11.510;2023-03-19T10:51:43;95978.84;;;10.13;100.00
7662;BME280;30314;48.184;11.510;2023-03-19T10:54:26;95985.28;;;10.31;100.00
7662;BME280;30314;48.184;11.510;2023-03-19T10:56:57;95979.31;;;10.45;100.00
7662;BME280;30314;48.184;11.510;2023-03-19T10:59:32;95984.09;;;10.42;100.00
7662;BME280;30314;48.184;11.510;2023-03-19T11:02:15;95971.69;;;10.43;100.00
7662;BME280;30314;48.184;11.510;2023-03-19T11:04:42;95973.47;;;10.48;100.00
7662;BME280;30314;48.184;11.510;2023-03-19T11:07:13;95967.09;;;10.54;100.00
7662;BME280;30314;48.184;11.510;2023-03-19T11:09:47;95930.13;;;10.29;100.00
7662;BME280;30314;48.184;11.510;2023-03-19T11:12:21;95960.44;;;10.56;100.00
7662;BME280;30314;48.184;11.510;2023-03-19T11:14:52;95947.06;;;10.48;100.00
7662;BME280;30314;48.184;11.510;2023-03-19T11:17:37;95944.16;;;10.49;100.00
7662;BME280;30314;48.184;11.510;2023-03-19T11:22:50;95957.72;;;10.42;100.00
7662;BME280;30314;48.184;11.510;2023-03-19T11:25:24;95936.75;;;10.27;100.00
7662;BME280;30314;48.184;11.510;2023-03-19T11:28:01;95959.78;;;10.46;100.00
7662;BME280;30314;48.184;11.510;2023-03-19T11:31:10;95944.50;;;10.42;100.00
7662;BME280;30314;48.184;11.510;2023-03-19T11:39:51;95946.56;;;10.46;100.00
7662;BME280;30314;48.184;11.510;2023-03-19T11:42:42;95949.88;;;10.56;100.00
7662;BME280;30314;48.184;11.510;2023-03-19T11:45:30;95949.88;;;10.56;100.00
7662;BME280;30314;48.184;11.510;2023-03-19T11:48:15;95941.09;;;10.61;100.00
7662;BME280;30314;48.184;11.510;2023-03-19T11:50:50;95944.78;;;10.65;100.00
7662;BME280;30314;48.184;11.510;2023-03-19T11:53:48;95937.38;;;10.62;100.00
7662;BME280;30314;48.184;11.510;2023-03-19T12:13:26;95937.19;;;10.97;100.00
7662;BME280;30314;48.184;11.510;2023-03-19T12:16:16;95912.22;;;10.89;100.00
7662;BME280;30314;48.184;11.510;2023-03-19T12:19:25;95917.78;;;11.07;100.00
7662;BME280;30314;48.184;11.510;2023-03-19T12:30:39;95905.91;;;11.43;100.00
7662;BME280;30314;48.184;11.510;2023-03-19T12:33:09;95902.47;;;11.42;100.00
7662;BME280;30314;48.184;11.510;2023-03-19T12:35:40;95875.28;;;11.22;100.00
7662;BME280;30314;48.184;11.510;2023-03-19T12:38:20;95896.84;;;11.30;100.00
7662;BME280;30314;48.184;11.510;2023-03-19T12:40:59;95872.66;;;11.22;100.00
7662;BME280;30314;48.184;11.510;2023-03-19T12:43:35;95839.53;;;11.25;100.00
7662;BME280;30314;48.184;11.510;2023-03-19T12:46:09;95879.97;;;11.45;100.00
7662;BME280;30314;48.184;11.510;2023-03-19T12:48:52;95880.44;;;11.47;100.00
7662;BME280;30314;48.184;11.510;2023-03-19T12:51:29;95881.41;;;11.37;100.00
7662;BME280;30314;48.184;11.510;2023-03-19T12:54:11;95878.47;;;11.38;100.00
7662;BME280;30314;48.184;11.510;2023-03-19T12:56:47;95874.34;;;11.32;100.00
7662;BME280;30314;48.184;11.510;2023-03-19T12:59:29;95883.94;;;11.42;100.00
7662;BME280;30314;48.184;11.510;2023-03-19T13:02:02;95875.91;;;11.33;100.00
7662;BME280;30314;48.184;11.510;2023-03-19T13:04:39;95877.78;;;11.33;100.00
7662;BME280;30314;48.184;11.510;2023-03-19T13:07:19;95878.44;;;11.24;100.00
7662;BME280;30314;48.184;11.510;2023-03-19T13:10:01;95876.91;;;11.18;100.00
7662;BME280;30314;48.184;11.510;2023-03-19T13:12:31;95870.59;;;11.19;100.00
7662;BME280;30314;48.184;11.510;2023-03-19T13:15:15;95869.56;;;11.15;100.00
7662;BME280;30314;48.184;11.510;2023-03-19T13:21:14;95873.72;;;11.21;100.00
7662;BME280;30314;48.184;11.510;2023-03-19T13:23:49;95855.09;;;11.12;100.00
7662;BME280;30314;48.184;11.510;2023-03-19T13:26:16;95861.88;;;11.19;100.00
7662;BME280;30314;48.184;11.510;2023-03-19T13:29:14;95864.22;;;11.20;100.00
7662;BME280;30314;48.184;11.510;2023-03-19T13:31:42;95852.78;;;11.06;100.00
7662;BME280;30314;48.184;11.510;2023-03-19T13:34:17;95865.94;;;11.11;100.00
7662;BME280;30314;48.184;11.510;2023-03-19T13:37:12;95847.72;;;10.90;100.00
7662;BME280;30314;48.184;11.510;2023-03-19T13:39:40;95853.44;;;10.97;100.00
7662;BME280;30314;48.184;11.510;2023-03-19T13:42:22;95863.91;;;11.03;100.00
7662;BME280;30314;48.184;11.510;2023-03-19T13:44:53;95863.44;;;11.00;100.00
7662;BME280;30314;48.184;11.510;2023-03-19T13:57:56;95851.38;;;11.13;100.00
7662;BME280;30314;48.184;11.510;2023-03-19T14:03:27;95845.97;;;11.38;100.00
7662;BME280;30314;48.184;11.510;2023-03-19T14:05:56;95834.41;;;11.34;100.00
7662;BME280;30314;48.184;11.510;2023-03-19T14:08:28;95810.28;;;11.21;100.00
7662;BME280;30314;48.184;11.510;2023-03-19T14:11:01;95822.66;;;11.40;97.39
7662;BME280;30314;48.184;11.510;2023-03-19T14:13:33;95841.97;;;11.54;99.63
7662;BME280;30314;48.184;11.510;2023-03-19T14:16:11;95844.91;;;11.53;95.96
7662;BME280;30314;48.184;11.510;2023-03-19T14:18:46;95840.41;;;11.53;97.21
7662;BME280;30314;48.184;11.510;2023-03-19T14:21:16;95778.47;;;11.26;98.77
7662;BME280;30314;48.184;11.510;2023-03-19T14:23:52;95828.06;;;11.77;99.16
7662;BME280;30314;48.184;11.510;2023-03-19T14:26:25;95819.38;;;11.76;91.83
7662;BME280;30314;48.184;11.510;2023-03-19T14:29:00;95822.50;;;11.78;89.45
7662;BME280;30314;48.184;11.510;2023-03-19T14:31:40;95823.28;;;11.93;84.03
7662;BME280;30314;48.184;11.510;2023-03-19T14:37:17;95827.69;;;11.97;83.30